Time;durP1;ratioP1;P1;durP2;ratioP2;P2;SDS_P1;SDS_P2;PMS_P1;PMS_P2;Temp;Humidity;BMP_temperature;BMP_pressure;BME280_temperature;BME280_humidity;BME280_pressure;Samples;Min_cycle;Max_cycle;Signal;HPM_P1;HPM_P2
2023/04/22 00:01:26;;;;;;;;;36.50;31.50;;;;;14.88;53.40;100000.31;5055955;28;45163;-54
2023/04/22 00:03:51;;;;;;;;;30.00;27.50;;;;;14.98;52.54;100011.47;5055493;28;46186;-54
2023/04/22 00:06:17;;;;;;;;;35.00;29.50;;;;;14.99;54.54;100017.84;5053903;28;45416;-53
2023/04/22 00:08:43;;;;;;;;;26.25;26.25;;;;;15.00;54.55;100020.34;5055877;28;45480;-53
2023/04/22 00:11:08;;;;;;;;;29.50;25.75;;;;;15.00;52.83;100022.28;5053931;28;45475;-55
2023/04/22 00:13:34;;;;;;;;;27.75;26.75;;;;;14.93;52.27;100025.25;5037138;28;45486;-56
2023/04/22 00:15:59;;;;;;;;;32.50;30.25;;;;;14.96;54.84;100029.41;5055610;28;45351;-51
2023/04/22 00:18:25;;;;;;;;;27.50;24.00;;;;;14.95;53.44;100030.50;5054086;28;45485;-55
2023/04/22 00:20:50;;;;;;;;;28.50;24.50;;;;;14.91;53.82;100027.44;5053974;28;45404;-56
2023/04/22 00:23:16;;;;;;;;;25.75;21.50;;;;;14.97;55.07;100029.16;5053218;28;47553;-55
2023/04/22 00:25:41;;;;;;;;;21.00;19.50;;;;;14.96;51.87;100024.75;5055344;28;45366;-56
2023/04/22 00:28:07;;;;;;;;;24.50;23.50;;;;;14.80;51.21;100028.41;5054404;28;45479;-56
2023/04/22 00:30:33;;;;;;;;;28.00;22.50;;;;;14.74;51.78;100022.00;5053896;28;45381;-52
2023/04/22 00:32:59;;;;;;;;;19.00;18.80;;;;;14.68;50.63;100026.56;5070963;27;47039;-55
2023/04/22 00:35:24;;;;;;;;;20.75;20.00;;;;;14.73;53.58;100020.28;5055080;28;45306;-55
2023/04/22 00:37:50;;;;;;;;;16.50;16.50;;;;;14.74;55.44;100027.50;5055129;28;45600;-53
2023/04/22 00:40:15;;;;;;;;;22.25;21.25;;;;;14.75;50.56;100013.44;5053556;28;45562;-55
2023/04/22 00:42:42;;;;;;;;;25.00;20.75;;;;;14.78;53.79;100023.13;5053853;28;45417;-51
2023/04/22 00:45:11;;;;;;;;;21.00;18.80;;;;;14.71;52.21;100028.81;5054077;28;45633;-56
2023/04/22 00:47:36;;;;;;;;;22.20;21.00;;;;;14.78;55.10;100031.41;5054803;28;45397;-57
2023/04/22 00:50:02;;;;;;;;;20.50;20.50;;;;;14.85;55.22;100029.31;5055408;28;45317;-54
2023/04/22 00:52:28;;;;;;;;;24.80;23.60;;;;;14.86;54.79;100024.59;5054853;28;46079;-55
2023/04/22 00:54:53;;;;;;;;;25.50;22.75;;;;;14.81;50.48;100025.38;5054847;28;45377;-54
2023/04/22 00:57:19;;;;;;;;;24.75;23.75;;;;;14.73;54.43;100018.34;5054153;28;45178;-52
2023/04/22 00:59:44;;;;;;;;;20.25;19.25;;;;;14.73;52.03;100003.72;5054062;28;45411;-56
2023/04/22 01:02:10;;;;;;;;;25.25;22.00;;;;;14.72;51.35;100008.41;5053670;28;46613;-54
2023/04/22 01:04:36;;;;;;;;;22.00;19.80;;;;;14.73;52.17;99992.66;5055197;28;45434;-55
2023/04/22 01:07:01;;;;;;;;;17.00;15.75;;;;;14.75;51.68;99985.81;5054775;28;45442;-56
2023/04/22 01:09:27;;;;;;;;;23.00;20.00;;;;;14.79;53.58;99986.16;5053966;28;45339;-54
2023/04/22 01:11:52;;;;;;;;;19.50;19.50;;;;;14.58;53.16;99972.03;5019819;28;45729;-55
2023/04/22 01:14:18;;;;;;;;;22.50;18.75;;;;;14.66;53.81;99981.81;5053374;28;45413;-53
2023/04/22 01:16:43;;;;;;;;;22.25;20.75;;;;;14.72;54.64;99975.25;5054458;28;45429;-56
2023/04/22 01:19:10;;;;;;;;;22.25;19.50;;;;;14.58;54.70;99944.44;5053647;28;45550;-54
2023/04/22 01:21:36;;;;;;;;;23.00;21.60;;;;;14.71;50.33;99956.16;5054653;28;46611;-53
2023/04/22 01:24:01;;;;;;;;;25.00;17.20;;;;;14.66;53.01;99962.47;5054054;28;45404;-56
2023/04/22 01:26:27;;;;;;;;;19.75;19.50;;;;;14.69;55.62;99955.59;5054742;28;45384;-55
2023/04/22 01:28:52;;;;;;;;;23.25;18.25;;;;;14.64;53.95;99953.63;5053442;28;45777;-55
2023/04/22 01:31:18;;;;;;;;;20.25;16.75;;;;;14.72;54.73;99949.53;5054609;28;45276;-54
2023/04/22 01:33:44;;;;;;;;;21.00;19.50;;;;;14.54;53.21;99939.69;5053354;28;45310;-57
2023/04/22 01:36:10;;;;;;;;;20.50;17.00;;;;;14.65;50.70;99958.03;5036245;28;45303;-54
2023/04/22 01:38:36;;;;;;;;;22.00;20.40;;;;;14.62;55.05;99953.06;5054536;27;45350;-52
2023/04/22 01:41:01;;;;;;;;;25.50;22.00;;;;;14.68;55.88;99949.22;5052133;28;47436;-54
2023/04/22 01:43:29;;;;;;;;;20.00;20.00;;;;;14.75;55.42;99951.84;5051916;28;45245;-51
2023/04/22 01:45:55;;;;;;;;;23.60;21.20;;;;;14.69;53.83;99945.41;5054313;28;45435;-52
2023/04/22 01:48:20;;;;;;;;;20.50;16.25;;;;;14.75;53.80;99946.31;5047623;28;45343;-53
2023/04/22 01:50:46;;;;;;;;;20.75;18.75;;;;;14.74;52.44;99934.41;5053198;28;45515;-51
2023/04/22 01:53:11;;;;;;;;;20.25;17.50;;;;;14.71;55.71;99928.53;5054226;28;45345;-55
2023/04/22 01:55:37;;;;;;;;;19.25;19.25;;;;;14.71;55.81;99934.91;5054310;28;45381;-56
2023/04/22 01:58:03;;;;;;;;;23.50;22.00;;;;;14.72;48.58;99928.28;5054099;28;46062;-54
2023/04/22 02:00:29;;;;;;;;;19.60;18.80;;;;;14.69;49.33;99919.69;5053963;28;45397;-55
2023/04/22 02:02:54;;;;;;;;;22.00;20.75;;;;;14.62;52.52;99915.22;5051966;28;45363;-55
2023/04/22 02:05:20;;;;;;;;;23.00;21.25;;;;;14.61;54.18;99907.19;5053994;28;45383;-53
2023/04/22 02:07:45;;;;;;;;;21.50;18.75;;;;;14.62;52.70;99895.06;5054297;28;45546;-51
2023/04/22 02:10:11;;;;;;;;;21.00;20.00;;;;;14.61;53.20;99896.13;5030827;28;47427;-58
2023/04/22 02:12:37;;;;;;;;;22.00;20.25;;;;;14.60;56.13;99897.22;5047519;28;45398;-53
2023/04/22 02:15:03;;;;;;;;;24.75;20.75;;;;;14.58;55.01;99900.25;5053396;28;45369;-55
2023/04/22 02:17:29;;;;;;;;;18.80;18.80;;;;;14.69;54.95;99917.78;5052342;28;45537;-51
2023/04/22 02:19:54;;;;;;;;;23.25;18.25;;;;;14.58;55.89;99891.97;5053876;28;46890;-52
2023/04/22 02:22:20;;;;;;;;;16.75;15.00;;;;;14.66;53.42;99907.25;5053577;28;45331;-53
2023/04/22 02:24:46;;;;;;;;;22.40;17.20;;;;;14.48;54.91;99914.78;5053819;28;45353;-57
2023/04/22 02:27:12;;;;;;;;;19.75;17.75;;;;;14.50;51.39;99915.38;5052499;28;45368;-54
2023/04/22 02:29:37;;;;;;;;;20.75;18.00;;;;;14.45;52.67;99925.50;5053931;28;46084;-51
2023/04/22 02:32:03;;;;;;;;;23.00;19.00;;;;;14.33;53.50;99915.44;5053592;28;45354;-51
2023/04/22 02:34:28;;;;;;;;;22.50;20.00;;;;;14.35;51.68;99909.66;5052581;28;45293;-51
2023/04/22 02:36:53;;;;;;;;;21.50;19.50;;;;;14.26;52.39;99911.19;5054017;28;45398;-53
2023/04/22 02:39:19;;;;;;;;;25.75;22.75;;;;;14.42;55.20;99920.50;5053811;28;45965;-50
2023/04/22 02:41:44;;;;;;;;;24.75;22.00;;;;;14.48;56.19;99909.25;5053367;28;45282;-53
2023/04/22 02:44:10;;;;;;;;;18.75;18.75;;;;;14.53;56.01;99904.88;5053890;28;45574;-54
2023/04/22 02:46:35;;;;;;;;;23.00;22.50;;;;;14.49;55.40;99910.94;5053537;28;45963;-52
2023/04/22 02:49:01;;;;;;;;;23.50;22.00;;;;;14.47;56.58;99913.09;5053162;28;45832;-54
2023/04/22 02:51:26;;;;;;;;;23.50;23.50;;;;;14.46;58.10;99907.88;5052225;28;45518;-50
2023/04/22 02:53:52;;;;;;;;;24.50;22.75;;;;;14.48;53.71;99912.00;5035606;28;45253;-52
2023/04/22 02:56:19;;;;;;;;;28.25;23.50;;;;;14.52;58.88;99908.75;5056656;28;45360;-52
2023/04/22 02:58:44;;;;;;;;;24.80;23.40;;;;;14.55;58.91;99908.22;5056426;28;45427;-53
2023/04/22 03:01:10;;;;;;;;;26.25;24.25;;;;;14.56;59.05;99899.69;5056959;28;45885;-51
2023/04/22 03:03:36;;;;;;;;;24.50;24.25;;;;;14.59;57.60;99887.28;5056845;28;45365;-54
2023/04/22 03:06:01;;;;;;;;;30.50;27.75;;;;;14.56;58.81;99883.13;5055793;28;45444;-55
2023/04/22 03:08:27;;;;;;;;;26.75;23.25;;;;;14.55;58.90;99878.69;5056549;28;46085;-53
2023/04/22 03:10:52;;;;;;;;;23.75;23.25;;;;;14.48;56.35;99867.03;5056849;28;45326;-55
2023/04/22 03:13:18;;;;;;;;;24.75;22.00;;;;;14.42;54.29;99874.41;5041958;28;45431;-52
2023/04/22 03:15:43;;;;;;;;;29.00;24.00;;;;;14.36;59.93;99867.16;5055625;28;45370;-54
2023/04/22 03:18:08;;;;;;;;;28.00;25.00;;;;;14.43;55.33;99847.63;5055357;28;45753;-51
2023/04/22 03:20:34;;;;;;;;;25.75;24.50;;;;;14.40;59.36;99857.25;5056635;28;45313;-55
2023/04/22 03:23:00;;;;;;;;;29.50;21.75;;;;;14.43;59.58;99845.72;5056665;28;45346;-54
2023/04/22 03:25:25;;;;;;;;;25.75;25.25;;;;;14.43;54.83;99836.59;5055515;28;45299;-53
2023/04/22 03:27:51;;;;;;;;;33.25;28.50;;;;;14.41;57.97;99836.03;5056011;28;45918;-54
2023/04/22 03:30:16;;;;;;;;;28.75;28.50;;;;;14.23;58.18;99830.59;5056944;28;45342;-56
2023/04/22 03:32:42;;;;;;;;;28.50;24.75;;;;;14.26;58.86;99834.78;5056034;28;45612;-55
2023/04/22 03:35:07;;;;;;;;;26.75;24.50;;;;;14.32;60.26;99839.25;5056996;28;45345;-51
2023/04/22 03:37:33;;;;;;;;;24.25;23.50;;;;;14.39;55.66;99840.94;5056559;28;45514;-53
2023/04/22 03:39:58;;;;;;;;;24.75;24.75;;;;;14.40;59.22;99848.16;5056291;28;45485;-55
2023/04/22 03:42:24;;;;;;;;;28.50;23.75;;;;;14.43;60.25;99840.19;5056098;28;45243;-54
2023/04/22 03:44:50;;;;;;;;;27.00;24.75;;;;;14.55;60.57;99850.22;5038220;28;45549;-52
2023/04/22 03:47:15;;;;;;;;;29.25;27.75;;;;;14.56;59.41;99846.41;5055965;28;46586;-51
2023/04/22 03:49:41;;;;;;;;;27.50;26.50;;;;;14.56;60.67;99849.97;5054646;28;45340;-54
2023/04/22 03:52:06;;;;;;;;;29.00;25.00;;;;;14.48;59.77;99829.19;5055910;28;45411;-51
2023/04/22 03:54:32;;;;;;;;;34.75;28.50;;;;;14.56;60.68;99829.84;5056378;28;45436;-54
2023/04/22 03:56:57;;;;;;;;;28.00;25.75;;;;;14.60;60.78;99819.91;5055490;28;46009;-53
2023/04/22 03:59:23;;;;;;;;;27.75;27.00;;;;;14.66;60.92;99813.34;5055572;28;45378;-52
2023/04/22 04:01:49;;;;;;;;;33.75;30.00;;;;;14.67;60.22;99812.25;5054619;28;45393;-51
2023/04/22 04:04:15;;;;;;;;;23.80;21.00;;;;;14.58;58.95;99824.88;5055915;28;45331;-54
2023/04/22 04:06:40;;;;;;;;;24.25;23.50;;;;;14.48;57.89;99845.75;5053766;28;46443;-51
2023/04/22 04:09:06;;;;;;;;;26.25;22.50;;;;;14.50;61.08;99843.56;5055166;28;45254;-52
2023/04/22 04:11:31;;;;;;;;;29.25;25.00;;;;;14.58;59.86;99841.44;5054674;28;45179;-51
2023/04/22 04:13:57;;;;;;;;;28.25;25.50;;;;;14.58;61.22;99820.16;5055751;28;45619;-54
2023/04/22 04:16:22;;;;;;;;;29.25;27.25;;;;;14.61;61.53;99811.38;5054886;28;45447;-54
2023/04/22 04:18:51;;;;;;;;;29.75;28.75;;;;;14.61;61.43;99797.56;5055257;28;45388;-52
2023/04/22 04:21:16;;;;;;;;;31.20;29.80;;;;;14.63;61.55;99767.75;5055640;28;45772;-50
2023/04/22 04:23:42;;;;;;;;;29.25;27.75;;;;;14.56;59.40;99755.28;5053928;28;45452;-54
2023/04/22 04:26:08;;;;;;;;;32.50;28.50;;;;;14.46;58.76;99759.59;5055082;28;45737;-52
2023/04/22 04:28:34;;;;;;;;;24.00;24.00;;;;;14.43;61.89;99759.28;5055484;28;45433;-52
2023/04/22 04:30:59;;;;;;;;;29.75;26.00;;;;;14.47;58.29;99761.25;5055870;28;45405;-51
2023/04/22 04:33:25;;;;;;;;;30.50;29.00;;;;;14.34;61.53;99776.34;5055382;28;45355;-54
2023/04/22 04:35:51;;;;;;;;;30.80;28.60;;;;;14.37;61.75;99802.59;5055572;28;46145;-52
2023/04/22 04:38:17;;;;;;;;;37.50;30.25;;;;;14.42;62.21;99815.59;5053676;28;45303;-53
2023/04/22 04:40:44;;;;;;;;;32.50;30.00;;;;;14.48;62.68;99809.84;5053887;28;45689;-54
2023/04/22 04:43:11;;;;;;;;;32.60;27.40;;;;;14.53;62.73;99791.69;5055190;28;45498;-54
2023/04/22 04:45:37;;;;;;;;;33.60;26.00;;;;;14.53;62.51;99773.19;5021116;28;45935;-53
2023/04/22 04:48:05;;;;;;;;;28.00;25.80;;;;;14.48;62.64;99775.91;5053522;28;45322;-54
2023/04/22 04:50:31;;;;;;;;;32.80;30.40;;;;;14.20;60.08;99783.38;5055395;28;45186;-53
2023/04/22 04:52:57;;;;;;;;;29.25;28.25;;;;;14.09;64.55;99772.22;5055396;28;45224;-53
2023/04/22 04:55:22;;;;;;;;;38.00;33.00;;;;;14.21;64.34;99774.00;5054551;28;46735;-53
2023/04/22 04:57:48;;;;;;;;;29.25;28.75;;;;;14.22;65.08;99742.53;5053772;28;45418;-52
2023/04/22 05:00:13;;;;;;;;;31.50;29.50;;;;;14.16;64.62;99749.09;5055562;28;45470;-49
2023/04/22 05:02:39;;;;;;;;;36.00;33.50;;;;;14.05;59.90;99753.69;5053994;28;46012;-52
2023/04/22 05:05:05;;;;;;;;;40.20;32.40;;;;;14.08;67.01;99742.13;5053578;28;47614;-54
2023/04/22 05:07:31;;;;;;;;;34.60;30.80;;;;;14.16;67.18;99746.34;5054830;28;45770;-53
2023/04/22 05:09:56;;;;;;;;;30.25;27.75;;;;;14.23;66.42;99731.25;5054130;28;45379;-51
2023/04/22 05:12:22;;;;;;;;;36.25;30.00;;;;;14.27;67.11;99741.75;5026066;28;45928;-49
2023/04/22 05:14:47;;;;;;;;;34.50;30.25;;;;;14.16;67.29;99752.69;5054773;28;46620;-52
2023/04/22 05:17:13;;;;;;;;;33.75;30.50;;;;;14.24;67.85;99773.47;5054266;28;45533;-53
2023/04/22 05:19:39;;;;;;;;;39.00;32.75;;;;;14.29;67.75;99784.56;5066886;28;45373;-52
2023/04/22 05:22:04;;;;;;;;;37.75;34.50;;;;;14.29;66.28;99789.25;5033822;28;45326;-51
2023/04/22 05:24:30;;;;;;;;;34.50;32.00;;;;;14.28;66.54;99791.19;5034296;28;46885;-53
2023/04/22 05:26:56;;;;;;;;;32.25;30.25;;;;;14.20;67.34;99781.44;5034751;28;45644;-53
2023/04/22 05:29:21;;;;;;;;;29.40;26.80;;;;;14.23;68.02;99777.31;5033085;28;45845;-52
2023/04/22 05:31:47;;;;;;;;;31.00;30.00;;;;;14.23;68.20;99764.38;5035149;28;45322;-53
2023/04/22 05:34:12;;;;;;;;;38.50;33.75;;;;;14.27;68.19;99792.28;5034644;28;46143;-56
2023/04/22 05:36:38;;;;;;;;;35.50;30.75;;;;;14.19;65.09;99803.78;5034454;28;45176;-56
2023/04/22 05:39:03;;;;;;;;;33.00;31.25;;;;;13.89;63.44;99825.25;5034459;28;45643;-55
2023/04/22 05:41:29;;;;;;;;;28.50;25.75;;;;;13.92;68.79;99835.75;5033293;28;45465;-51
2023/04/22 05:43:54;;;;;;;;;37.00;33.50;;;;;13.97;68.06;99857.03;5034508;28;45552;-53
2023/04/22 05:46:20;;;;;;;;;37.00;33.75;;;;;14.00;69.62;99848.25;5034789;28;45337;-53
2023/04/22 05:48:45;;;;;;;;;36.25;34.75;;;;;14.06;68.45;99838.13;5033937;28;45389;-50
2023/04/22 05:51:11;;;;;;;;;36.00;31.00;;;;;14.08;70.17;99827.63;5067394;28;45382;-52
2023/04/22 05:53:36;;;;;;;;;34.50;34.00;;;;;14.08;69.93;99800.06;5034287;27;45706;-54
2023/04/22 05:56:02;;;;;;;;;31.50;31.00;;;;;14.12;69.20;99790.19;5034090;28;45433;-55
2023/04/22 05:58:27;;;;;;;;;37.50;33.25;;;;;13.90;66.97;99798.47;5066614;28;45417;-51
2023/04/22 06:00:53;;;;;;;;;35.50;31.00;;;;;13.84;69.19;99805.84;5053176;28;45313;-54
2023/04/22 06:03:18;;;;;;;;;45.00;36.75;;;;;13.78;70.68;99810.47;5054085;28;46149;-53
2023/04/22 06:05:44;;;;;;;;;38.25;35.75;;;;;13.85;68.78;99817.72;5054048;28;45559;-51
2023/04/22 06:08:09;;;;;;;;;38.25;30.75;;;;;13.93;71.38;99826.38;5054175;28;45469;-54
2023/04/22 06:10:35;;;;;;;;;37.25;30.75;;;;;14.02;71.32;99835.03;5054456;28;45344;-52
2023/04/22 06:13:00;;;;;;;;;42.00;33.00;;;;;14.08;71.67;99830.41;5051713;28;47817;-56
2023/04/22 06:15:26;;;;;;;;;37.75;34.25;;;;;14.12;71.03;99816.91;5031771;28;45738;-50
2023/04/22 06:17:51;;;;;;;;;37.25;33.00;;;;;14.11;71.90;99810.59;5081405;27;45443;-54
2023/04/22 06:20:17;;;;;;;;;36.00;31.75;;;;;14.10;70.42;99812.50;5054453;28;45467;-52
2023/04/22 06:22:42;;;;;;;;;36.75;34.00;;;;;14.09;71.63;99826.56;5053383;28;45617;-52
2023/04/22 06:25:08;;;;;;;;;38.75;35.75;;;;;14.07;70.55;99826.81;5053858;28;45530;-53
2023/04/22 06:27:34;;;;;;;;;32.00;30.50;;;;;14.02;70.89;99829.50;5053927;28;45455;-53
2023/04/22 06:29:59;;;;;;;;;30.25;29.75;;;;;13.92;70.56;99830.22;5055075;28;45424;-52
2023/04/22 06:32:25;;;;;;;;;31.75;27.00;;;;;13.96;70.32;99831.38;5057387;28;46053;-52
2023/04/22 06:34:50;;;;;;;;;30.25;28.25;;;;;13.95;71.50;99835.25;5057285;28;45854;-52
2023/04/22 06:37:17;;;;;;;;;35.50;34.00;;;;;13.99;71.67;99834.72;5057361;28;45464;-52
2023/04/22 06:39:42;;;;;;;;;31.80;22.60;;;;;13.99;70.91;99835.56;5057350;28;45470;-50
2023/04/22 06:42:08;;;;;;;;;35.25;30.00;;;;;14.03;71.77;99830.38;5055345;28;45836;-51
2023/04/22 06:44:33;;;;;;;;;29.75;26.75;;;;;14.03;71.32;99839.47;5057470;28;45499;-54
2023/04/22 06:46:59;;;;;;;;;38.50;32.75;;;;;14.06;71.39;99835.34;5057210;28;45436;-55
2023/04/22 06:49:24;;;;;;;;;32.50;29.25;;;;;14.04;71.16;99827.31;5057556;28;45376;-52
2023/04/22 06:51:50;;;;;;;;;31.25;29.00;;;;;14.04;72.25;99815.47;5057220;27;45870;-55
2023/04/22 06:54:15;;;;;;;;;35.00;32.50;;;;;14.05;71.11;99819.91;5057205;28;45374;-55
2023/04/22 06:56:41;;;;;;;;;34.75;32.00;;;;;14.07;71.59;99820.47;5089516;27;45264;-53
2023/04/22 06:59:06;;;;;;;;;37.00;32.00;;;;;14.01;71.05;99821.50;5057279;28;45396;-57
2023/04/22 07:01:32;;;;;;;;;38.75;31.25;;;;;13.94;71.75;99825.28;5055650;28;46668;-55
2023/04/22 07:03:58;;;;;;;;;38.50;33.25;;;;;13.94;71.10;99814.25;5057122;28;45784;-56
2023/04/22 07:06:23;;;;;;;;;35.50;30.00;;;;;13.88;72.07;99806.19;5056039;28;45441;-52
2023/04/22 07:08:49;;;;;;;;;31.50;27.75;;;;;14.01;72.57;99811.31;5057193;28;45555;-52
2023/04/22 07:11:14;;;;;;;;;35.00;29.50;;;;;14.09;72.56;99804.50;5057032;28;45922;-55
2023/04/22 07:13:40;;;;;;;;;35.50;30.75;;;;;14.14;72.79;99806.47;5056857;28;45420;-55
2023/04/22 07:16:05;;;;;;;;;39.00;33.00;;;;;14.19;72.54;99817.59;5057090;28;45457;-54
2023/04/22 07:18:31;;;;;;;;;29.25;23.75;;;;;14.16;72.34;99813.41;5057321;28;45495;-54
2023/04/22 07:20:56;;;;;;;;;30.50;27.75;;;;;14.13;72.46;99818.63;5036731;28;45635;-53
2023/04/22 07:23:22;;;;;;;;;30.00;28.75;;;;;14.04;71.87;99804.44;5056687;28;45397;-55
2023/04/22 07:25:47;;;;;;;;;38.00;31.75;;;;;13.93;70.66;99812.59;5056362;28;45416;-54
2023/04/22 07:28:13;;;;;;;;;37.00;33.50;;;;;13.93;72.45;99817.28;5055539;28;45468;-54
2023/04/22 07:30:38;;;;;;;;;32.75;28.25;;;;;13.93;72.84;99809.00;5055210;28;46865;-62
2023/04/22 07:33:24;;;;;;;;;29.60;28.40;;;;;15.04;71.28;99811.50;4901553;27;46152;-62
2023/04/22 07:35:49;;;;;;;;;32.75;30.00;;;;;15.10;72.05;99808.78;4954601;28;45311;-61
2023/04/22 07:38:15;;;;;;;;;32.00;29.25;;;;;14.94;72.69;99811.41;5042622;28;45758;-58
2023/04/22 07:40:43;;;;;;;;;31.75;29.75;;;;;14.57;69.31;99784.56;5050796;28;45301;-61
2023/04/22 07:43:09;;;;;;;;;33.60;29.80;;;;;14.52;74.03;99821.25;5041059;28;46346;-57
2023/04/22 07:45:34;;;;;;;;;33.50;31.75;;;;;14.24;72.82;99790.03;5038518;28;45314;-56
2023/04/22 07:48:00;;;;;;;;;32.00;29.50;;;;;14.30;74.05;99811.06;5024243;28;45366;-62
2023/04/22 07:50:26;;;;;;;;;31.00;30.75;;;;;14.21;75.83;99809.88;5046375;27;45563;-60
2023/04/22 07:52:51;;;;;;;;;41.25;33.00;;;;;14.21;76.17;99798.84;4997287;27;45613;-60
2023/04/22 07:55:17;;;;;;;;;38.50;32.00;;;;;14.18;75.77;99810.38;5042876;28;45331;-62
2023/04/22 07:57:43;;;;;;;;;33.25;29.50;;;;;14.08;76.46;99809.19;5029567;28;45363;-60
2023/04/22 08:00:09;;;;;;;;;30.75;28.50;;;;;13.94;75.51;99800.44;5029856;28;45425;-60
2023/04/22 08:02:34;;;;;;;;;29.00;26.60;;;;;13.94;77.01;99817.00;5030631;28;46629;-59
2023/04/22 08:05:00;;;;;;;;;34.75;30.50;;;;;13.77;76.78;99789.50;5030290;28;45473;-56
2023/04/22 08:07:26;;;;;;;;;36.50;32.75;;;;;13.87;77.11;99808.09;5071057;27;45524;-53
2023/04/22 08:09:51;;;;;;;;;29.25;29.00;;;;;13.91;77.74;99820.28;5051137;28;45323;-56
2023/04/22 08:12:17;;;;;;;;;33.75;30.00;;;;;13.84;77.20;99811.38;5049376;28;46614;-55
2023/04/22 08:14:42;;;;;;;;;30.25;29.00;;;;;13.88;77.53;99811.69;5036797;28;45241;-55
2023/04/22 08:17:08;;;;;;;;;34.50;27.75;;;;;13.76;76.76;99800.81;5031027;28;45403;-58
2023/04/22 08:19:33;;;;;;;;;32.25;28.00;;;;;13.82;78.58;99814.38;5029846;28;45464;-60
2023/04/22 08:21:59;;;;;;;;;33.75;31.50;;;;;13.86;78.44;99817.47;5011321;28;46775;-59
2023/04/22 08:24:24;;;;;;;;;28.50;28.50;;;;;13.84;77.36;99822.41;5049229;28;45484;-60
2023/04/22 08:26:50;;;;;;;;;39.25;34.25;;;;;13.83;78.54;99827.06;5031275;28;45244;-58
2023/04/22 08:29:15;;;;;;;;;35.75;30.00;;;;;13.86;78.89;99825.72;5029608;28;45209;-62
2023/04/22 08:31:41;;;;;;;;;35.00;29.75;;;;;13.81;79.90;99822.91;5035875;28;45985;-62
2023/04/22 08:34:06;;;;;;;;;38.00;34.00;;;;;13.70;79.97;99832.97;5046956;28;45329;-62
2023/04/22 08:36:32;;;;;;;;;38.00;32.25;;;;;13.62;80.05;99814.13;5062756;27;45385;-60
2023/04/22 08:38:58;;;;;;;;;36.75;31.75;;;;;13.78;79.10;99829.75;5054370;28;45354;-60
2023/04/22 08:41:23;;;;;;;;;26.50;25.00;;;;;13.97;80.86;99826.69;5024524;28;46766;-57
2023/04/22 08:43:49;;;;;;;;;32.75;29.75;;;;;14.12;80.94;99833.47;5035807;28;45411;-56
2023/04/22 08:46:15;;;;;;;;;9.00;4.25;;;;;14.03;78.86;99820.16;5034870;28;45700;-55
2023/04/22 08:48:41;;;;;;;;;35.00;30.60;;;;;14.13;80.24;99832.41;5031646;28;45518;-56
2023/04/22 08:51:07;;;;;;;;;33.25;29.75;;;;;14.12;80.75;99833.47;5035239;28;46507;-59
2023/04/22 08:53:32;;;;;;;;;32.40;30.40;;;;;14.09;80.14;99832.91;5033815;28;45887;-57
2023/04/22 08:55:58;;;;;;;;;32.25;30.75;;;;;13.93;79.62;99840.16;5035115;28;45449;-59
2023/04/22 08:58:24;;;;;;;;;33.75;28.75;;;;;14.03;80.86;99839.47;5033944;28;45258;-61
2023/04/22 09:00:49;;;;;;;;;35.50;31.50;;;;;14.07;80.01;99832.34;5032350;28;46146;-63
2023/04/22 09:03:15;;;;;;;;;24.75;24.75;;;;;14.13;80.58;99844.25;5035385;28;45350;-59
2023/04/22 09:05:40;;;;;;;;;29.00;26.50;;;;;14.20;82.51;99844.91;5034675;28;45375;-59
2023/04/22 09:08:06;;;;;;;;;27.00;26.75;;;;;14.16;81.67;99826.38;5032280;28;45505;-56
2023/04/22 09:10:32;;;;;;;;;28.40;27.20;;;;;14.36;82.25;99842.31;5042620;28;46755;-61
2023/04/22 09:12:58;;;;;;;;;39.00;30.75;;;;;14.40;82.57;99853.69;5028600;28;45481;-59
2023/04/22 09:15:24;;;;;;;;;27.75;25.50;;;;;14.31;82.62;99842.28;5014332;28;45433;-62
2023/04/22 09:17:50;;;;;;;;;28.80;27.40;;;;;14.41;83.02;99847.88;5014230;28;45533;-59
2023/04/22 09:20:16;;;;;;;;;33.60;31.00;;;;;14.44;81.89;99844.63;5013748;28;46579;-62
2023/04/22 09:22:44;;;;;;;;;27.00;23.80;;;;;14.34;82.78;99834.31;5017833;28;45421;-60
2023/04/22 09:25:20;;;;;;;;;32.20;26.80;;;;;14.45;82.58;99857.31;5028284;28;45508;-59
2023/04/22 09:27:52;;;;;;;;;23.60;23.60;;;;;14.48;83.62;99856.78;5067467;28;45638;-62
2023/04/22 09:30:30;;;;;;;;;28.20;24.80;;;;;14.52;83.90;99857.13;5034154;28;45769;-62
2023/04/22 09:32:57;;;;;;;;;29.20;24.40;;;;;14.59;83.68;99859.66;5032771;28;45648;-61
2023/04/22 09:35:30;;;;;;;;;24.00;21.00;;;;;14.67;84.29;99872.19;5065110;27;45464;-63
2023/04/22 09:37:57;;;;;;;;;25.00;23.40;;;;;14.68;82.68;99869.13;5020041;28;45493;-61
2023/04/22 09:40:22;;;;;;;;;23.40;21.80;;;;;14.59;83.08;99870.72;5038029;27;45458;-62
2023/04/22 09:42:50;;;;;;;;;22.00;18.00;;;;;14.66;83.50;99876.88;5053706;28;45408;-62
2023/04/22 09:45:32;;;;;;;;;19.40;17.60;;;;;14.73;83.31;99888.53;5054584;28;45412;-62
2023/04/22 09:48:17;;;;;;;;;21.40;19.20;;;;;14.80;81.96;99888.38;5049423;28;45492;-64
2023/04/22 09:50:44;;;;;;;;;19.40;14.60;;;;;14.76;81.52;99892.72;5049572;28;47619;-62
2023/04/22 09:53:11;;;;;;;;;15.80;15.40;;;;;14.71;81.75;99887.13;5032919;28;45467;-63
2023/04/22 09:55:39;;;;;;;;;13.60;13.60;;;;;14.80;81.13;99910.47;5033151;28;45570;-61
2023/04/22 09:58:07;;;;;;;;;15.60;12.20;;;;;14.87;83.65;99918.53;5034737;28;45396;-62
2023/04/22 10:00:33;;;;;;;;;13.40;12.00;;;;;14.86;83.33;99908.56;5042306;28;45564;-61
2023/04/22 10:02:59;;;;;;;;;14.75;13.25;;;;;14.91;81.09;99919.69;5054599;28;45494;-61
2023/04/22 10:05:25;;;;;;;;;17.40;16.40;;;;;14.95;83.27;99926.38;5069233;28;45456;-62
2023/04/22 10:07:52;;;;;;;;;20.20;18.00;;;;;14.78;80.97;99918.16;5047873;28;45638;-60
2023/04/22 10:10:17;;;;;;;;;16.20;15.00;;;;;14.79;81.56;99914.31;5034951;28;47309;-60
2023/04/22 10:12:43;;;;;;;;;14.50;14.50;;;;;14.72;80.70;99911.72;5031103;28;45413;-63
2023/04/22 10:15:08;;;;;;;;;16.25;14.75;;;;;14.75;79.31;99922.31;5032896;28;45484;-59
2023/04/22 10:17:36;;;;;;;;;14.25;13.50;;;;;14.83;82.08;99920.97;5038869;28;45337;-59
2023/04/22 10:20:04;;;;;;;;;17.60;16.40;;;;;15.01;82.78;99936.34;5045395;28;45962;-57
2023/04/22 10:22:33;;;;;;;;;19.00;17.20;;;;;15.10;82.60;99927.59;5029795;28;45483;-59
2023/04/22 10:24:59;;;;;;;;;13.00;13.00;;;;;15.10;81.37;99933.94;5028215;28;45336;-60
2023/04/22 10:27:24;;;;;;;;;15.00;15.00;;;;;15.08;77.94;99929.78;5034375;28;45449;-62
2023/04/22 10:29:50;;;;;;;;;13.50;13.50;;;;;14.98;79.65;99927.75;5028165;28;45981;-65
2023/04/22 10:32:18;;;;;;;;;18.50;14.00;;;;;15.09;81.78;99934.22;5030659;28;45526;-62
2023/04/22 10:34:47;;;;;;;;;22.80;17.40;;;;;15.13;81.20;99938.97;5032644;28;45492;-62
2023/04/22 10:37:13;;;;;;;;;22.20;19.00;;;;;15.17;80.47;99942.03;5072031;27;45436;-63
2023/04/22 10:39:40;;;;;;;;;17.40;17.20;;;;;15.03;78.97;99949.91;5038852;28;46023;-63
2023/04/22 10:42:14;;;;;;;;;19.20;14.00;;;;;14.98;79.27;99942.41;5045952;28;45741;-63
2023/04/22 10:44:49;;;;;;;;;19.20;19.20;;;;;15.00;79.22;99948.50;5031824;28;45422;-64
2023/04/22 10:47:27;;;;;;;;;14.80;14.60;;;;;14.85;80.07;99959.41;5032621;28;45567;-64
2023/04/22 10:50:11;;;;;;;;;14.00;13.40;;;;;14.89;77.26;99966.91;5030733;28;46680;-61
2023/04/22 10:52:37;;;;;;;;;16.80;14.20;;;;;14.82;79.55;99962.66;5032810;28;45376;-62
2023/04/22 10:55:03;;;;;;;;;20.75;18.00;;;;;14.97;79.62;99978.56;5033426;28;45421;-62
2023/04/22 10:57:36;;;;;;;;;11.75;11.75;;;;;15.03;79.97;99955.44;5065398;28;45556;-63
2023/04/22 11:00:18;;;;;;;;;19.60;14.40;;;;;14.96;72.76;99980.53;5031960;28;45644;-61
2023/04/22 11:02:45;;;;;;;;;18.00;16.80;;;;;15.04;77.69;99982.81;5072736;27;45493;-62
2023/04/22 11:05:24;;;;;;;;;18.00;16.80;;;;;15.03;77.13;99989.44;5034434;28;45860;-63
2023/04/22 11:07:49;;;;;;;;;21.40;19.20;;;;;15.12;78.62;100005.53;5032486;28;45410;-65
2023/04/22 11:10:36;;;;;;;;;21.00;16.75;;;;;15.24;77.94;100013.69;5031759;28;46937;-63
2023/04/22 11:13:01;;;;;;;;;13.80;13.60;;;;;15.10;77.04;100000.28;5031467;28;45546;-61